sensor_id;sensor_type;location;lat;lon;timestamp;pressure;altitude;pressure_sealevel;temperature;humidity
9764;BME280;4921;43.214;27.936;2023-05-01T00:00:23;100910.44;;;13.84;65.90
9764;BME280;4921;43.214;27.936;2023-05-01T00:02:51;100910.94;;;13.78;66.47
9764;BME280;4921;43.214;27.936;2023-05-01T00:05:18;100911.13;;;13.86;66.05
9764;BME280;4921;43.214;27.936;2023-05-01T00:07:45;100911.69;;;13.90;65.85
9764;BME280;4921;43.214;27.936;2023-05-01T00:10:12;100909.03;;;13.90;65.61
9764;BME280;4921;43.214;27.936;2023-05-01T00:12:39;100917.41;;;13.95;65.33
9764;BME280;4921;43.214;27.936;2023-05-01T00:15:07;100927.41;;;13.82;65.49
9764;BME280;4921;43.214;27.936;2023-05-01T00:17:34;100932.00;;;13.89;65.36
9764;BME280;4921;43.214;27.936;2023-05-01T00:20:03;100935.03;;;13.85;65.04
9764;BME280;4921;43.214;27.936;2023-05-01T00:22:30;100930.19;;;13.80;64.51
9764;BME280;4921;43.214;27.936;2023-05-01T00:24:57;100931.69;;;13.83;64.77
9764;BME280;4921;43.214;27.936;2023-05-01T00:27:24;100929.34;;;13.89;64.75
9764;BME280;4921;43.214;27.936;2023-05-01T00:29:51;100939.13;;;13.89;64.85
9764;BME280;4921;43.214;27.936;2023-05-01T00:32:18;100943.28;;;13.91;65.18
9764;BME280;4921;43.214;27.936;2023-05-01T00:34:45;100936.97;;;13.83;65.19
9764;BME280;4921;43.214;27.936;2023-05-01T00:37:14;100940.03;;;13.78;65.53
9764;BME280;4921;43.214;27.936;2023-05-01T00:39:41;100940.31;;;13.85;65.47
9764;BME280;4921;43.214;27.936;2023-05-01T00:42:08;100933.94;;;13.87;65.71
9764;BME280;4921;43.214;27.936;2023-05-01T00:44:36;100936.72;;;13.86;65.33
9764;BME280;4921;43.214;27.936;2023-05-01T00:47:02;100937.66;;;13.75;65.94
9764;BME280;4921;43.214;27.936;2023-05-01T00:49:30;100940.16;;;13.76;66.71
9764;BME280;4921;43.214;27.936;2023-05-01T00:51:56;100950.31;;;13.71;66.60
9764;BME280;4921;43.214;27.936;2023-05-01T00:54:25;100948.41;;;13.73;66.13
9764;BME280;4921;43.214;27.936;2023-05-01T00:56:53;100946.16;;;13.69;67.04
9764;BME280;4921;43.214;27.936;2023-05-01T00:59:20;100946.44;;;13.75;66.71
9764;BME280;4921;43.214;27.936;2023-05-01T01:01:47;100946.75;;;13.82;66.20
9764;BME280;4921;43.214;27.936;2023-05-01T01:04:14;100946.59;;;13.84;65.11
9764;BME280;4921;43.214;27.936;2023-05-01T01:06:46;100937.44;;;13.88;64.82
9764;BME280;4921;43.214;27.936;2023-05-01T01:09:22;100944.81;;;13.94;64.11
9764;BME280;4921;43.214;27.936;2023-05-01T01:12:03;100936.88;;;13.94;64.15
9764;BME280;4921;43.214;27.936;2023-05-01T01:14:34;100929.78;;;13.94;64.36
9764;BME280;4921;43.214;27.936;2023-05-01T01:17:08;100940.13;;;14.07;62.83
9764;BME280;4921;43.214;27.936;2023-05-01T01:20:01;100940.25;;;14.15;61.96
9764;BME280;4921;43.214;27.936;2023-05-01T01:22:32;100948.38;;;14.23;60.82
9764;BME280;4921;43.214;27.936;2023-05-01T01:28:14;100950.91;;;14.43;57.56
9764;BME280;4921;43.214;27.936;2023-05-01T01:31:04;100955.38;;;14.52;56.44
9764;BME280;4921;43.214;27.936;2023-05-01T01:34:08;100959.69;;;14.63;56.00
9764;BME280;4921;43.214;27.936;2023-05-01T01:36:42;100958.03;;;14.72;55.50
9764;BME280;4921;43.214;27.936;2023-05-01T01:39:20;100948.25;;;14.82;54.83
9764;BME280;4921;43.214;27.936;2023-05-01T01:41:51;100949.50;;;14.87;54.80
9764;BME280;4921;43.214;27.936;2023-05-01T01:44:21;100946.03;;;14.96;54.82
9764;BME280;4921;43.214;27.936;2023-05-01T01:46:52;100946.13;;;15.04;54.38
9764;BME280;4921;43.214;27.936;2023-05-01T01:49:24;100951.44;;;15.04;54.17
9764;BME280;4921;43.214;27.936;2023-05-01T01:51:52;100948.47;;;15.07;54.11
9764;BME280;4921;43.214;27.936;2023-05-01T01:54:25;100957.38;;;15.25;54.01
9764;BME280;4921;43.214;27.936;2023-05-01T01:56:55;100961.97;;;15.33;53.79
9764;BME280;4921;43.214;27.936;2023-05-01T01:59:27;100962.94;;;15.42;53.32
9764;BME280;4921;43.214;27.936;2023-05-01T02:01:57;100966.97;;;15.46;52.97
9764;BME280;4921;43.214;27.936;2023-05-01T02:04:27;100960.41;;;15.50;52.73
9764;BME280;4921;43.214;27.936;2023-05-01T02:06:55;100961.63;;;15.55;52.15
9764;BME280;4921;43.214;27.936;2023-05-01T02:09:24;100955.78;;;15.52;51.79
9764;BME280;4921;43.214;27.936;2023-05-01T02:11:53;100965.91;;;15.66;51.80
9764;BME280;4921;43.214;27.936;2023-05-01T02:14:21;100963.81;;;15.69;51.58
9764;BME280;4921;43.214;27.936;2023-05-01T02:16:51;100971.34;;;15.74;50.92
9764;BME280;4921;43.214;27.936;2023-05-01T02:19:19;100975.50;;;15.76;50.43
9764;BME280;4921;43.214;27.936;2023-05-01T02:21:48;100976.75;;;15.82;50.03
9764;BME280;4921;43.214;27.936;2023-05-01T02:24:16;100968.53;;;15.75;49.05
9764;BME280;4921;43.214;27.936;2023-05-01T02:26:48;100985.91;;;15.87;48.96
9764;BME280;4921;43.214;27.936;2023-05-01T02:29:17;100992.06;;;15.88;49.15
9764;BME280;4921;43.214;27.936;2023-05-01T02:31:45;100987.59;;;15.88;49.31
9764;BME280;4921;43.214;27.936;2023-05-01T02:34:11;100992.59;;;15.91;49.58
9764;BME280;4921;43.214;27.936;2023-05-01T02:36:39;100994.13;;;15.94;49.21
9764;BME280;4921;43.214;27.936;2023-05-01T02:39:07;100999.00;;;15.98;48.12
9764;BME280;4921;43.214;27.936;2023-05-01T02:41:34;100999.22;;;16.05;46.25
9764;BME280;4921;43.214;27.936;2023-05-01T02:44:03;100997.25;;;16.07;45.58
9764;BME280;4921;43.214;27.936;2023-05-01T02:46:35;100993.94;;;16.05;45.42
9764;BME280;4921;43.214;27.936;2023-05-01T02:49:03;100996.41;;;16.07;46.63
9764;BME280;4921;43.214;27.936;2023-05-01T02:51:31;100996.13;;;16.10;46.71
9764;BME280;4921;43.214;27.936;2023-05-01T02:54:00;101011.09;;;16.11;45.39
9764;BME280;4921;43.214;27.936;2023-05-01T02:56:29;100999.38;;;16.03;45.33
9764;BME280;4921;43.214;27.936;2023-05-01T02:58:57;101007.28;;;16.13;45.50
9764;BME280;4921;43.214;27.936;2023-05-01T03:01:24;101011.63;;;16.14;45.23
9764;BME280;4921;43.214;27.936;2023-05-01T03:03:52;101008.69;;;16.17;45.11
9764;BME280;4921;43.214;27.936;2023-05-01T03:06:19;101003.38;;;16.17;44.84
9764;BME280;4921;43.214;27.936;2023-05-01T03:08:46;101017.63;;;16.16;44.64
9764;BME280;4921;43.214;27.936;2023-05-01T03:11:13;101023.59;;;16.18;44.64
9764;BME280;4921;43.214;27.936;2023-05-01T03:13:41;101025.97;;;16.21;44.74
9764;BME280;4921;43.214;27.936;2023-05-01T03:16:08;101022.19;;;16.24;44.61
9764;BME280;4921;43.214;27.936;2023-05-01T03:18:35;101030.84;;;16.26;44.44
9764;BME280;4921;43.214;27.936;2023-05-01T03:21:02;101027.19;;;16.27;44.38
9764;BME280;4921;43.214;27.936;2023-05-01T03:23:30;101039.50;;;16.28;44.59
9764;BME280;4921;43.214;27.936;2023-05-01T03:25:57;101037.13;;;16.25;44.88
9764;BME280;4921;43.214;27.936;2023-05-01T03:28:24;101040.47;;;16.27;45.02
9764;BME280;4921;43.214;27.936;2023-05-01T03:30:52;101035.00;;;16.28;44.86
9764;BME280;4921;43.214;27.936;2023-05-01T03:33:19;101030.69;;;16.27;45.02
9764;BME280;4921;43.214;27.936;2023-05-01T03:35:46;101035.00;;;16.28;45.20
9764;BME280;4921;43.214;27.936;2023-05-01T03:38:13;101037.66;;;16.28;45.81
9764;BME280;4921;43.214;27.936;2023-05-01T03:40:40;101042.50;;;16.33;45.86
9764;BME280;4921;43.214;27.936;2023-05-01T03:43:07;101046.84;;;16.34;45.41
9764;BME280;4921;43.214;27.936;2023-05-01T03:45:34;101048.38;;;16.36;45.03
9764;BME280;4921;43.214;27.936;2023-05-01T03:48:02;101053.25;;;16.41;44.61
9764;BME280;4921;43.214;27.936;2023-05-01T03:50:29;101058.91;;;16.46;43.48
9764;BME280;4921;43.214;27.936;2023-05-01T03:52:56;101054.16;;;16.49;43.47
9764;BME280;4921;43.214;27.936;2023-05-01T03:55:23;101061.84;;;16.52;43.88
9764;BME280;4921;43.214;27.936;2023-05-01T03:57:50;101061.72;;;16.54;43.99
9764;BME280;4921;43.214;27.936;2023-05-01T04:00:17;101067.72;;;16.56;44.27
9764;BME280;4921;43.214;27.936;2023-05-01T04:02:44;101062.78;;;16.61;44.22
9764;BME280;4921;43.214;27.936;2023-05-01T04:05:13;101065.13;;;16.64;43.83
9764;BME280;4921;43.214;27.936;2023-05-01T04:07:40;101064.81;;;16.67;43.87
9764;BME280;4921;43.214;27.936;2023-05-01T04:10:07;101068.03;;;16.70;43.72
9764;BME280;4921;43.214;27.936;2023-05-01T04:12:35;101065.63;;;16.77;43.41
9764;BME280;4921;43.214;27.936;2023-05-01T04:15:02;101072.13;;;16.83;45.97
9764;BME280;4921;43.214;27.936;2023-05-01T04:17:30;101076.31;;;16.85;44.76
9764;BME280;4921;43.214;27.936;2023-05-01T04:19:57;101074.03;;;16.90;43.76
9764;BME280;4921;43.214;27.936;2023-05-01T04:22:26;101080.03;;;16.92;43.46
9764;BME280;4921;43.214;27.936;2023-05-01T04:24:53;101086.88;;;16.95;43.61
9764;BME280;4921;43.214;27.936;2023-05-01T04:27:20;101086.44;;;16.99;43.83
9764;BME280;4921;43.214;27.936;2023-05-01T04:29:47;101081.63;;;17.03;44.41
9764;BME280;4921;43.214;27.936;2023-05-01T04:32:14;101084.97;;;17.05;44.85
9764;BME280;4921;43.214;27.936;2023-05-01T04:34:41;101085.38;;;17.10;45.22
9764;BME280;4921;43.214;27.936;2023-05-01T04:37:09;101087.69;;;17.13;45.66
9764;BME280;4921;43.214;27.936;2023-05-01T04:39:37;101095.53;;;17.14;45.92
9764;BME280;4921;43.214;27.936;2023-05-01T04:42:04;101093.69;;;17.15;46.51
9764;BME280;4921;43.214;27.936;2023-05-01T04:44:31;101105.69;;;17.19;47.29
9764;BME280;4921;43.214;27.936;2023-05-01T04:47:00;101099.69;;;17.17;47.72
9764;BME280;4921;43.214;27.936;2023-05-01T04:49:28;101108.50;;;17.17;48.40
9764;BME280;4921;43.214;27.936;2023-05-01T04:51:55;101103.19;;;17.17;48.56
9764;BME280;4921;43.214;27.936;2023-05-01T04:54:22;101105.00;;;17.17;49.10
9764;BME280;4921;43.214;27.936;2023-05-01T04:56:51;101109.13;;;17.11;49.44
9764;BME280;4921;43.214;27.936;2023-05-01T04:59:18;101113.75;;;17.09;49.97
9764;BME280;4921;43.214;27.936;2023-05-01T05:01:45;101119.81;;;17.02;50.57
9764;BME280;4921;43.214;27.936;2023-05-01T05:04:12;101125.00;;;17.03;50.72
9764;BME280;4921;43.214;27.936;2023-05-01T05:06:39;101130.75;;;16.99;51.15
9764;BME280;4921;43.214;27.936;2023-05-01T05:09:06;101128.22;;;16.97;52.00
9764;BME280;4921;43.214;27.936;2023-05-01T05:11:32;101123.69;;;16.90;52.50
9764;BME280;4921;43.214;27.936;2023-05-01T05:14:01;101130.22;;;16.77;53.46
9764;BME280;4921;43.214;27.936;2023-05-01T05:16:28;101130.09;;;16.69;54.00
9764;BME280;4921;43.214;27.936;2023-05-01T05:18:55;101139.19;;;16.67;54.71
9764;BME280;4921;43.214;27.936;2023-05-01T05:21:23;101131.22;;;16.67;55.26
9764;BME280;4921;43.214;27.936;2023-05-01T05:23:50;101138.75;;;16.71;55.24
9764;BME280;4921;43.214;27.936;2023-05-01T05:26:16;101137.50;;;16.75;55.25
9764;BME280;4921;43.214;27.936;2023-05-01T05:28:44;101139.38;;;16.83;54.89
9764;BME280;4921;43.214;27.936;2023-05-01T05:31:12;101143.81;;;16.92;54.75
9764;BME280;4921;43.214;27.936;2023-05-01T05:33:39;101145.56;;;17.01;54.92
9764;BME280;4921;43.214;27.936;2023-05-01T05:36:06;101148.81;;;17.13;54.47
9764;BME280;4921;43.214;27.936;2023-05-01T05:38:33;101144.75;;;17.18;54.40
9764;BME280;4921;43.214;27.936;2023-05-01T05:41:00;101149.00;;;17.29;54.05
9764;BME280;4921;43.214;27.936;2023-05-01T05:43:27;101151.72;;;17.37;54.04
9764;BME280;4921;43.214;27.936;2023-05-01T05:45:57;101155.00;;;17.48;53.54
9764;BME280;4921;43.214;27.936;2023-05-01T05:48:26;101157.28;;;17.61;52.09
9764;BME280;4921;43.214;27.936;2023-05-01T05:50:53;101149.88;;;17.73;51.18
9764;BME280;4921;43.214;27.936;2023-05-01T05:53:21;101162.88;;;17.76;50.39
9764;BME280;4921;43.214;27.936;2023-05-01T05:55:48;101156.53;;;17.94;49.61
9764;BME280;4921;43.214;27.936;2023-05-01T05:58:15;101154.28;;;18.07;48.46
9764;BME280;4921;43.214;27.936;2023-05-01T06:00:45;101158.66;;;18.16;47.67
9764;BME280;4921;43.214;27.936;2023-05-01T06:03:13;101151.38;;;18.26;46.88
9764;BME280;4921;43.214;27.936;2023-05-01T06:05:42;101161.94;;;18.36;46.41
9764;BME280;4921;43.214;27.936;2023-05-01T06:08:09;101158.19;;;18.47;45.27
9764;BME280;4921;43.214;27.936;2023-05-01T06:10:36;101159.09;;;18.63;42.29
9764;BME280;4921;43.214;27.936;2023-05-01T06:13:05;101155.81;;;18.77;41.48
9764;BME280;4921;43.214;27.936;2023-05-01T06:15:33;101156.03;;;18.92;41.35
9764;BME280;4921;43.214;27.936;2023-05-01T06:18:00;101161.56;;;19.07;40.74
9764;BME280;4921;43.214;27.936;2023-05-01T06:20:27;101166.09;;;19.22;41.32
9764;BME280;4921;43.214;27.936;2023-05-01T06:22:55;101173.78;;;19.33;42.73
9764;BME280;4921;43.214;27.936;2023-05-01T06:25:22;101175.50;;;19.50;43.85
9764;BME280;4921;43.214;27.936;2023-05-01T06:27:49;101176.69;;;19.64;42.84
9764;BME280;4921;43.214;27.936;2023-05-01T06:30:17;101175.50;;;19.74;42.47
9764;BME280;4921;43.214;27.936;2023-05-01T06:32:45;101171.34;;;19.88;41.08
9764;BME280;4921;43.214;27.936;2023-05-01T06:35:13;101186.84;;;20.01;39.41
9764;BME280;4921;43.214;27.936;2023-05-01T06:37:40;101185.66;;;20.11;38.77
9764;BME280;4921;43.214;27.936;2023-05-01T06:40:09;101179.63;;;20.17;37.79
9764;BME280;4921;43.214;27.936;2023-05-01T06:42:37;101184.28;;;20.39;35.99
9764;BME280;4921;43.214;27.936;2023-05-01T06:45:05;101191.09;;;20.50;33.08
9764;BME280;4921;43.214;27.936;2023-05-01T06:47:32;101196.06;;;20.53;30.88
9764;BME280;4921;43.214;27.936;2023-05-01T06:49:59;101203.09;;;20.54;31.07
9764;BME280;4921;43.214;27.936;2023-05-01T06:52:26;101203.72;;;20.64;30.55
9764;BME280;4921;43.214;27.936;2023-05-01T06:54:53;101206.72;;;20.69;29.63
9764;BME280;4921;43.214;27.936;2023-05-01T06:57:21;101207.28;;;20.57;29.43
9764;BME280;4921;43.214;27.936;2023-05-01T06:59:48;101209.88;;;20.73;29.74
9764;BME280;4921;43.214;27.936;2023-05-01T07:02:15;101217.38;;;20.77;29.71
9764;BME280;4921;43.214;27.936;2023-05-01T07:04:42;101219.56;;;20.74;28.14
9764;BME280;4921;43.214;27.936;2023-05-01T07:07:09;101223.22;;;20.81;28.01
9764;BME280;4921;43.214;27.936;2023-05-01T07:09:36;101236.56;;;20.89;27.95
9764;BME280;4921;43.214;27.936;2023-05-01T07:12:04;101235.66;;;20.96;28.67
9764;BME280;4921;43.214;27.936;2023-05-01T07:14:34;101224.03;;;20.89;28.51
9764;BME280;4921;43.214;27.936;2023-05-01T07:17:02;101236.00;;;21.01;29.68
9764;BME280;4921;43.214;27.936;2023-05-01T07:19:29;101239.97;;;21.13;29.58
9764;BME280;4921;43.214;27.936;2023-05-01T07:21:56;101239.63;;;21.16;29.26
9764;BME280;4921;43.214;27.936;2023-05-01T07:24:23;101241.78;;;21.21;28.20
9764;BME280;4921;43.214;27.936;2023-05-01T07:26:50;101247.25;;;21.27;27.85
9764;BME280;4921;43.214;27.936;2023-05-01T07:29:17;101251.78;;;21.27;28.35
9764;BME280;4921;43.214;27.936;2023-05-01T07:31:59;101245.91;;;21.32;28.21
9764;BME280;4921;43.214;27.936;2023-05-01T07:34:46;101253.38;;;21.05;28.64
9764;BME280;4921;43.214;27.936;2023-05-01T07:37:13;101265.38;;;21.17;29.07
9764;BME280;4921;43.214;27.936;2023-05-01T07:39:40;101264.53;;;21.17;29.56
9764;BME280;4921;43.214;27.936;2023-05-01T07:42:07;101280.19;;;20.81;28.70
9764;BME280;4921;43.214;27.936;2023-05-01T07:44:34;101265.47;;;20.93;28.54
9764;BME280;4921;43.214;27.936;2023-05-01T07:47:03;101273.44;;;21.09;27.05
9764;BME280;4921;43.214;27.936;2023-05-01T07:49:34;101279.25;;;21.21;28.07
9764;BME280;4921;43.214;27.936;2023-05-01T07:52:02;101283.69;;;20.82;27.71
9764;BME280;4921;43.214;27.936;2023-05-01T07:54:29;101281.25;;;20.56;28.59
9764;BME280;4921;43.214;27.936;2023-05-01T07:56:56;101287.09;;;20.60;28.16
9764;BME280;4921;43.214;27.936;2023-05-01T07:59:23;101282.03;;;20.73;28.82
9764;BME280;4921;43.214;27.936;2023-05-01T08:01:50;101289.00;;;20.98;29.78
9764;BME280;4921;43.214;27.936;2023-05-01T08:04:19;101297.13;;;21.20;28.22
9764;BME280;4921;43.214;27.936;2023-05-01T08:06:47;101293.59;;;21.28;28.39
9764;BME280;4921;43.214;27.936;2023-05-01T08:09:14;101293.44;;;20.67;28.28
9764;BME280;4921;43.214;27.936;2023-05-01T08:11:41;101303.66;;;20.39;28.30
9764;BME280;4921;43.214;27.936;2023-05-01T08:14:08;101298.81;;;20.50;27.92
9764;BME280;4921;43.214;27.936;2023-05-01T08:16:35;101295.47;;;20.57;28.56
9764;BME280;4921;43.214;27.936;2023-05-01T08:19:02;101299.66;;;20.43;28.75
9764;BME280;4921;43.214;27.936;2023-05-01T08:21:31;101300.28;;;20.69;29.91
9764;BME280;4921;43.214;27.936;2023-05-01T08:23:58;101294.59;;;20.72;30.56
9764;BME280;4921;43.214;27.936;2023-05-01T08:26:25;101301.41;;;20.91;29.74
9764;BME280;4921;43.214;27.936;2023-05-01T08:28:52;101301.09;;;20.78;30.26
9764;BME280;4921;43.214;27.936;2023-05-01T08:31:19;101304.75;;;20.77;29.46
9764;BME280;4921;43.214;27.936;2023-05-01T08:33:47;101307.81;;;20.66;29.61
9764;BME280;4921;43.214;27.936;2023-05-01T08:36:14;101310.13;;;20.69;29.42
9764;BME280;4921;43.214;27.936;2023-05-01T08:38:42;101303.66;;;20.63;29.37
9764;BME280;4921;43.214;27.936;2023-05-01T08:41:14;101306.41;;;20.86;29.63
9764;BME280;4921;43.214;27.936;2023-05-01T08:43:42;101306.63;;;20.68;29.98
9764;BME280;4921;43.214;27.936;2023-05-01T08:46:08;101302.25;;;20.83;30.12
9764;BME280;4921;43.214;27.936;2023-05-01T08:48:39;101299.66;;;20.59;30.29
9764;BME280;4921;43.214;27.936;2023-05-01T08:51:09;101296.75;;;20.69;29.54
9764;BME280;4921;43.214;27.936;2023-05-01T08:53:41;101309.44;;;20.75;29.46
9764;BME280;4921;43.214;27.936;2023-05-01T08:56:10;101306.63;;;20.76;28.60
9764;BME280;4921;43.214;27.936;2023-05-01T08:58:39;101307.78;;;20.74;30.51
9764;BME280;4921;43.214;27.936;2023-05-01T09:01:08;101310.31;;;20.51;30.03
9764;BME280;4921;43.214;27.936;2023-05-01T09:03:38;101310.03;;;20.46;29.82
9764;BME280;4921;43.214;27.936;2023-05-01T09:06:05;101311.69;;;20.47;31.18
9764;BME280;4921;43.214;27.936;2023-05-01T09:08:33;101310.53;;;20.33;31.41
9764;BME280;4921;43.214;27.936;2023-05-01T09:11:02;101315.50;;;20.44;29.27
9764;BME280;4921;43.214;27.936;2023-05-01T09:13:29;101302.13;;;20.61;29.23
9764;BME280;4921;43.214;27.936;2023-05-01T09:15:56;101315.59;;;20.91;29.43
9764;BME280;4921;43.214;27.936;2023-05-01T09:18:25;101325.63;;;20.81;27.46
9764;BME280;4921;43.214;27.936;2023-05-01T09:20:52;101328.50;;;20.80;27.80
9764;BME280;4921;43.214;27.936;2023-05-01T09:23:19;101325.28;;;20.92;28.92
9764;BME280;4921;43.214;27.936;2023-05-01T09:25:47;101325.28;;;21.00;28.10
9764;BME280;4921;43.214;27.936;2023-05-01T09:28:16;101312.00;;;21.23;27.71
9764;BME280;4921;43.214;27.936;2023-05-01T09:30:42;101320.50;;;21.35;27.38
9764;BME280;4921;43.214;27.936;2023-05-01T09:33:11;101319.25;;;21.45;26.91
9764;BME280;4921;43.214;27.936;2023-05-01T09:35:49;101326.44;;;21.45;27.29
9764;BME280;4921;43.214;27.936;2023-05-01T09:38:18;101321.97;;;21.68;27.79
9764;BME280;4921;43.214;27.936;2023-05-01T09:40:45;101322.22;;;21.81;27.75
9764;BME280;4921;43.214;27.936;2023-05-01T09:43:12;101327.09;;;22.08;27.55
9764;BME280;4921;43.214;27.936;2023-05-01T09:45:41;101323.28;;;22.25;27.37
9764;BME280;4921;43.214;27.936;2023-05-01T09:48:08;101327.56;;;22.12;26.86
9764;BME280;4921;43.214;27.936;2023-05-01T09:50:36;101317.28;;;22.38;27.57
9764;BME280;4921;43.214;27.936;2023-05-01T09:53:07;101320.84;;;22.53;27.72
9764;BME280;4921;43.214;27.936;2023-05-01T09:55:35;101318.19;;;22.30;28.15
9764;BME280;4921;43.214;27.936;2023-05-01T09:58:02;101319.25;;;22.58;28.40
9764;BME280;4921;43.214;27.936;2023-05-01T10:00:29;101314.22;;;22.93;27.59
9764;BME280;4921;43.214;27.936;2023-05-01T10:03:11;101317.91;;;23.21;26.89
9764;BME280;4921;43.214;27.936;2023-05-01T10:05:42;101320.81;;;23.34;25.19
9764;BME280;4921;43.214;27.936;2023-05-01T10:08:09;101318.44;;;23.60;25.87
9764;BME280;4921;43.214;27.936;2023-05-01T10:10:39;101321.72;;;23.77;25.31
9764;BME280;4921;43.214;27.936;2023-05-01T10:13:15;101311.44;;;23.80;25.22
9764;BME280;4921;43.214;27.936;2023-05-01T10:15:43;101331.25;;;24.00;25.49
9764;BME280;4921;43.214;27.936;2023-05-01T10:18:13;101323.50;;;24.05;25.97
9764;BME280;4921;43.214;27.936;2023-05-01T10:20:40;101323.41;;;24.20;25.59
9764;BME280;4921;43.214;27.936;2023-05-01T10:23:07;101322.47;;;24.28;25.54
9764;BME280;4921;43.214;27.936;2023-05-01T10:25:35;101326.56;;;24.23;25.78
9764;BME280;4921;43.214;27.936;2023-05-01T10:28:03;101336.22;;;24.18;26.35
9764;BME280;4921;43.214;27.936;2023-05-01T10:30:31;101332.94;;;24.01;26.60
9764;BME280;4921;43.214;27.936;2023-05-01T10:32:58;101319.16;;;23.90;27.41
9764;BME280;4921;43.214;27.936;2023-05-01T10:35:29;101328.66;;;24.07;27.08
9764;BME280;4921;43.214;27.936;2023-05-01T10:37:59;101331.13;;;23.87;26.98
9764;BME280;4921;43.214;27.936;2023-05-01T10:40:43;101320.06;;;23.76;24.96
9764;BME280;4921;43.214;27.936;2023-05-01T10:43:13;101333.22;;;23.71;25.25
9764;BME280;4921;43.214;27.936;2023-05-01T10:45:42;101332.31;;;23.64;25.28
9764;BME280;4921;43.214;27.936;2023-05-01T10:48:08;101330.03;;;23.31;25.87
9764;BME280;4921;43.214;27.936;2023-05-01T10:51:06;101332.19;;;23.07;25.91
9764;BME280;4921;43.214;27.936;2023-05-01T10:53:34;101325.91;;;22.85;26.88
9764;BME280;4921;43.214;27.936;2023-05-01T10:56:02;101324.59;;;22.96;26.90
9764;BME280;4921;43.214;27.936;2023-05-01T10:59:03;101327.72;;;22.99;26.37
9764;BME280;4921;43.214;27.936;2023-05-01T11:01:32;101317.94;;;22.77;25.91
9764;BME280;4921;43.214;27.936;2023-05-01T11:04:01;101328.69;;;22.92;26.16
9764;BME280;4921;43.214;27.936;2023-05-01T11:06:31;101335.25;;;22.89;26.94
9764;BME280;4921;43.214;27.936;2023-05-01T11:08:58;101314.63;;;22.90;26.73
9764;BME280;4921;43.214;27.936;2023-05-01T11:11:44;101328.13;;;22.82;26.27
9764;BME280;4921;43.214;27.936;2023-05-01T11:14:13;101335.13;;;22.68;26.30
9764;BME280;4921;43.214;27.936;2023-05-01T11:16:41;101338.00;;;22.66;27.74
9764;BME280;4921;43.214;27.936;2023-05-01T11:19:10;101335.88;;;22.62;27.22
9764;BME280;4921;43.214;27.936;2023-05-01T11:21:39;101333.38;;;22.38;27.94
9764;BME280;4921;43.214;27.936;2023-05-01T11:24:06;101336.19;;;22.22;28.55
9764;BME280;4921;43.214;27.936;2023-05-01T11:26:37;101343.44;;;22.13;28.26
9764;BME280;4921;43.214;27.936;2023-05-01T11:29:04;101327.19;;;21.92;27.77
9764;BME280;4921;43.214;27.936;2023-05-01T11:31:32;101330.72;;;21.62;27.86
9764;BME280;4921;43.214;27.936;2023-05-01T11:33:59;101324.63;;;21.68;28.29
9764;BME280;4921;43.214;27.936;2023-05-01T11:36:27;101322.75;;;21.84;28.30
9764;BME280;4921;43.214;27.936;2023-05-01T11:38:56;101323.53;;;21.93;27.67
9764;BME280;4921;43.214;27.936;2023-05-01T11:41:24;101329.34;;;21.96;28.21
9764;BME280;4921;43.214;27.936;2023-05-01T11:43:52;101336.84;;;22.01;27.04
9764;BME280;4921;43.214;27.936;2023-05-01T11:46:23;101334.94;;;22.10;27.85
9764;BME280;4921;43.214;27.936;2023-05-01T11:48:52;101325.06;;;22.10;27.96
9764;BME280;4921;43.214;27.936;2023-05-01T11:51:19;101328.22;;;22.14;28.66
9764;BME280;4921;43.214;27.936;2023-05-01T11:54:00;101332.56;;;22.15;27.65
9764;BME280;4921;43.214;27.936;2023-05-01T11:56:27;101334.81;;;22.03;27.99
9764;BME280;4921;43.214;27.936;2023-05-01T11:58:55;101321.19;;;21.90;27.39
9764;BME280;4921;43.214;27.936;2023-05-01T12:01:32;101333.50;;;22.22;28.60
9764;BME280;4921;43.214;27.936;2023-05-01T12:04:00;101338.09;;;22.13;29.59
9764;BME280;4921;43.214;27.936;2023-05-01T12:06:34;101338.34;;;22.04;30.24
9764;BME280;4921;43.214;27.936;2023-05-01T12:09:06;101326.53;;;22.13;33.09
9764;BME280;4921;43.214;27.936;2023-05-01T12:11:37;101335.44;;;21.82;35.01
9764;BME280;4921;43.214;27.936;2023-05-01T12:14:05;101327.19;;;21.92;34.37
9764;BME280;4921;43.214;27.936;2023-05-01T12:16:32;101331.25;;;21.88;38.65
9764;BME280;4921;43.214;27.936;2023-05-01T12:19:00;101328.94;;;21.77;38.41
9764;BME280;4921;43.214;27.936;2023-05-01T12:21:27;101336.13;;;21.07;38.86
9764;BME280;4921;43.214;27.936;2023-05-01T12:23:54;101320.50;;;20.72;33.22
9764;BME280;4921;43.214;27.936;2023-05-01T12:26:24;101354.56;;;20.78;33.94
9764;BME280;4921;43.214;27.936;2023-05-01T12:28:55;101346.69;;;20.92;34.33
9764;BME280;4921;43.214;27.936;2023-05-01T12:31:23;101345.91;;;20.68;34.32
9764;BME280;4921;43.214;27.936;2023-05-01T12:33:54;101347.06;;;20.73;35.36
9764;BME280;4921;43.214;27.936;2023-05-01T12:36:22;101339.91;;;20.66;35.35
9764;BME280;4921;43.214;27.936;2023-05-01T12:38:56;101344.53;;;20.80;34.96
9764;BME280;4921;43.214;27.936;2023-05-01T12:41:36;101353.56;;;20.87;35.86
9764;BME280;4921;43.214;27.936;2023-05-01T12:44:15;101354.59;;;20.53;28.39
9764;BME280;4921;43.214;27.936;2023-05-01T12:46:43;101363.75;;;20.19;34.94
9764;BME280;4921;43.214;27.936;2023-05-01T12:49:15;101356.22;;;20.14;33.86
9764;BME280;4921;43.214;27.936;2023-05-01T12:51:45;101356.44;;;20.21;36.09
9764;BME280;4921;43.214;27.936;2023-05-01T12:54:18;101359.13;;;20.29;34.91
9764;BME280;4921;43.214;27.936;2023-05-01T12:56:46;101364.63;;;20.27;33.21
9764;BME280;4921;43.214;27.936;2023-05-01T12:59:19;101364.41;;;20.13;36.38
9764;BME280;4921;43.214;27.936;2023-05-01T13:01:47;101369.88;;;19.95;37.24
9764;BME280;4921;43.214;27.936;2023-05-01T13:04:19;101367.69;;;19.74;38.23
9764;BME280;4921;43.214;27.936;2023-05-01T13:06:46;101357.72;;;20.01;36.35
9764;BME280;4921;43.214;27.936;2023-05-01T13:09:14;101360.75;;;20.14;35.69
9764;BME280;4921;43.214;27.936;2023-05-01T13:11:42;101364.94;;;20.16;38.85